Lost Pines, Texas
Current Conditions -  °F | °C
As of 8:53 PM on Friday 19 Dec 2014 (Local Time) from KAUS Reporting Station
Overcast Overcast  
Wind Chill: 50°   Ceiling: 1200
Heat Index: 50°   Visibility: 10mi
Dew Point: 45°   Wind: 14mph
Humidity: 83%   Direction: 360°N
Pressure: 30.17"   Gusts: NA
Location:  30.0889°N, 97.4792°W
Report Text: KAUS 200253Z 36012KT 10SM OVC012 10/07 A3017 RMK AO2 SLP219 T01000072 51016
Loading
Personal Weather Stations






























Interactive Weather Map New forecast layout! Learn more

10-Day Weather Forecast

Advertisements
Track Severe Weather on mobile